createdAt,value
2022-08-25T00:01:37.612Z,2.83
2022-08-25T00:04:10.873Z,2.60
2022-08-25T00:06:40.552Z,2.87
2022-08-25T00:09:08.414Z,2.87
2022-08-25T00:11:36.542Z,3.00
2022-08-25T00:14:06.222Z,2.70
2022-08-25T00:16:33.471Z,2.97
2022-08-25T00:19:04.065Z,2.87
2022-08-25T00:21:31.857Z,2.93
2022-08-25T00:24:02.374Z,2.90
2022-08-25T00:26:29.561Z,2.87
2022-08-25T00:29:01.886Z,3.00
2022-08-25T00:31:38.473Z,3.20
2022-08-25T00:34:07.574Z,2.67
2022-08-25T00:36:35.265Z,2.87
2022-08-25T00:39:05.007Z,3.00
2022-08-25T00:41:32.680Z,2.90
2022-08-25T00:44:04.348Z,2.70
2022-08-25T00:46:34.826Z,2.60
2022-08-25T00:49:05.781Z,3.00
2022-08-25T00:51:37.619Z,2.67
2022-08-25T00:54:08.617Z,2.87
2022-08-25T00:56:35.565Z,3.07
2022-08-25T00:59:04.791Z,3.27
2022-08-25T01:01:31.994Z,3.07
2022-08-25T01:03:58.946Z,3.10
2022-08-25T01:06:27.276Z,3.50
2022-08-25T01:08:54.596Z,3.23
2022-08-25T01:11:22.857Z,2.93
2022-08-25T01:13:53.528Z,3.00
2022-08-25T01:16:20.923Z,3.20
2022-08-25T01:18:50.280Z,3.10
2022-08-25T01:21:21.392Z,3.20
2022-08-25T01:23:50.480Z,3.20
2022-08-25T01:26:28.322Z,3.23
2022-08-25T01:29:17.112Z,3.43
2022-08-25T01:31:45.070Z,3.50
2022-08-25T01:34:13.144Z,3.40
2022-08-25T01:36:43.126Z,3.40
2022-08-25T01:39:10.420Z,3.50
2022-08-25T01:41:51.394Z,3.47
2022-08-25T01:44:19.237Z,3.20
2022-08-25T01:46:46.082Z,3.33
2022-08-25T01:49:13.011Z,3.60
2022-08-25T01:51:47.054Z,3.80
2022-08-25T01:54:14.011Z,3.47
2022-08-25T01:56:41.709Z,3.50
2022-08-25T01:59:08.701Z,3.40
2022-08-25T02:01:35.758Z,3.87
2022-08-25T02:04:03.023Z,3.83
2022-08-25T02:06:33.149Z,3.50
2022-08-25T02:09:05.458Z,3.60
2022-08-25T02:11:32.847Z,3.40
2022-08-25T02:14:00.494Z,4.00
2022-08-25T02:16:30.602Z,3.70
2022-08-25T02:18:58.663Z,3.57
2022-08-25T02:21:25.996Z,4.00
2022-08-25T02:23:53.392Z,3.90
2022-08-25T02:26:21.553Z,3.80
2022-08-25T02:28:49.199Z,3.47
2022-08-25T02:31:17.710Z,3.50
2022-08-25T02:33:44.875Z,3.77
2022-08-25T02:36:12.384Z,3.80
2022-08-25T02:38:39.971Z,3.73
2022-08-25T02:41:12.559Z,3.77
2022-08-25T02:43:42.413Z,3.37
2022-08-25T02:46:10.539Z,4.20
2022-08-25T02:48:38.094Z,3.80
2022-08-25T02:51:07.302Z,3.80
2022-08-25T02:53:34.693Z,3.63
2022-08-25T02:56:01.723Z,3.60
2022-08-25T02:58:29.067Z,3.77
2022-08-25T03:00:57.357Z,3.90
2022-08-25T03:03:24.500Z,3.80
2022-08-25T03:05:51.579Z,3.80
2022-08-25T03:08:18.661Z,3.70
2022-08-25T03:10:45.632Z,4.10
2022-08-25T03:13:14.327Z,3.90
2022-08-25T03:15:42.544Z,3.70
2022-08-25T03:18:11.753Z,3.80
2022-08-25T03:20:41.105Z,3.73
2022-08-25T03:23:08.123Z,3.73
2022-08-25T03:25:53.747Z,3.90
2022-08-25T03:28:25.042Z,3.80
2022-08-25T03:30:57.275Z,3.50
2022-08-25T03:33:25.585Z,3.83
2022-08-25T03:35:52.495Z,4.17
2022-08-25T03:38:19.485Z,4.30
2022-08-25T03:40:46.414Z,3.83
2022-08-25T03:43:13.701Z,3.93
2022-08-25T03:45:41.530Z,4.10
2022-08-25T03:48:08.551Z,4.00
2022-08-25T03:50:37.323Z,3.87
2022-08-25T03:53:04.320Z,3.90
2022-08-25T03:55:31.140Z,3.90
2022-08-25T03:58:00.067Z,4.10
2022-08-25T04:00:27.047Z,4.73
2022-08-25T04:02:53.940Z,4.27
2022-08-25T04:05:20.919Z,4.30
2022-08-25T04:07:49.175Z,4.93
2022-08-25T04:10:16.108Z,4.70
2022-08-25T04:12:43.049Z,4.77
2022-08-25T04:15:10.889Z,4.20
2022-08-25T04:17:39.666Z,4.70
2022-08-25T04:20:08.314Z,4.10
2022-08-25T04:22:37.197Z,4.40
2022-08-25T04:25:07.544Z,4.43
2022-08-25T04:27:36.120Z,4.87
2022-08-25T04:30:04.368Z,4.67
2022-08-25T04:32:32.139Z,4.63
2022-08-25T04:34:59.299Z,4.27
2022-08-25T04:37:26.244Z,4.27
2022-08-25T04:39:53.220Z,4.30
2022-08-25T04:42:21.737Z,4.70
2022-08-25T04:44:49.631Z,4.27
2022-08-25T04:47:16.486Z,4.10
2022-08-25T04:49:43.430Z,4.60
2022-08-25T04:52:13.233Z,4.20
2022-08-25T04:54:41.623Z,4.60
2022-08-25T04:57:08.537Z,3.90
2022-08-25T04:59:36.798Z,4.17
2022-08-25T05:02:05.198Z,4.97
2022-08-25T05:04:33.841Z,4.57
2022-08-25T05:07:01.670Z,4.27
2022-08-25T05:09:29.143Z,4.33
2022-08-25T05:11:59.980Z,4.47
2022-08-25T05:14:27.196Z,4.73
2022-08-25T05:16:56.024Z,4.80
2022-08-25T05:19:24.185Z,5.00
2022-08-25T05:21:51.616Z,4.67
2022-08-25T05:24:18.619Z,4.80
2022-08-25T05:26:46.203Z,5.10
2022-08-25T05:29:13.148Z,4.90
2022-08-25T05:31:44.054Z,5.07
2022-08-25T05:34:14.904Z,4.90
2022-08-25T05:36:43.514Z,5.00
2022-08-25T05:39:11.096Z,4.87
2022-08-25T05:41:38.826Z,5.23
2022-08-25T05:44:06.132Z,5.00
2022-08-25T05:46:33.407Z,5.10
2022-08-25T05:49:00.434Z,5.53
2022-08-25T05:51:28.935Z,6.00
2022-08-25T05:53:55.991Z,5.70
2022-08-25T05:56:22.961Z,5.73
2022-08-25T05:58:50.321Z,5.60
2022-08-25T06:01:43.497Z,6.50
2022-08-25T06:04:12.176Z,5.90
2022-08-25T06:06:41.260Z,5.73
2022-08-25T06:09:09.643Z,5.73
2022-08-25T06:11:38.044Z,6.60
2022-08-25T06:14:05.406Z,6.80
2022-08-25T06:16:33.052Z,5.73
2022-08-25T06:19:01.049Z,6.40
2022-08-25T06:21:28.249Z,6.80
2022-08-25T06:23:56.612Z,6.53
2022-08-25T06:26:23.762Z,6.83
2022-08-25T06:28:51.388Z,7.33
2022-08-25T06:31:19.160Z,6.47
2022-08-25T06:33:46.696Z,6.47
2022-08-25T06:36:13.895Z,7.60
2022-08-25T06:38:40.815Z,6.50
2022-08-25T06:41:12.686Z,7.57
2022-08-25T06:43:45.061Z,6.43
2022-08-25T06:46:18.161Z,6.43
2022-08-25T06:48:45.176Z,6.47
2022-08-25T06:51:14.368Z,6.47
2022-08-25T06:53:42.793Z,6.37
2022-08-25T06:56:11.296Z,6.80
2022-08-25T06:58:38.831Z,6.60
2022-08-25T07:01:15.661Z,6.77
2022-08-25T07:03:47.148Z,6.40
2022-08-25T07:06:17.196Z,6.70
2022-08-25T07:08:45.740Z,5.90
2022-08-25T07:11:16.679Z,5.93
2022-08-25T07:13:44.751Z,6.67
2022-08-25T07:16:11.972Z,7.53
2022-08-25T07:18:38.962Z,6.67
2022-08-25T07:21:08.899Z,7.17
2022-08-25T07:23:36.425Z,6.80
2022-08-25T07:26:15.804Z,6.87
2022-08-25T07:28:56.352Z,6.73
2022-08-25T07:31:23.313Z,8.00
2022-08-25T07:34:15.330Z,6.43
2022-08-25T07:36:43.690Z,6.47
2022-08-25T07:39:10.928Z,7.30
2022-08-25T07:41:40.115Z,6.83
2022-08-25T07:44:10.111Z,7.67
2022-08-25T07:46:37.253Z,6.87
2022-08-25T07:49:05.326Z,6.70
2022-08-25T07:52:04.688Z,5.77
2022-08-25T07:54:33.927Z,5.73
2022-08-25T07:57:01.880Z,5.77
2022-08-25T07:59:31.012Z,5.43
2022-08-25T08:02:08.234Z,5.37
2022-08-25T08:04:36.588Z,6.47
2022-08-25T08:07:03.728Z,6.07
2022-08-25T08:09:31.261Z,6.50
2022-08-25T08:11:58.198Z,6.20
2022-08-25T08:14:25.152Z,5.80
2022-08-25T08:16:53.988Z,5.53
2022-08-25T08:19:23.020Z,5.57
2022-08-25T08:21:50.784Z,5.03
2022-08-25T08:24:38.392Z,4.93
2022-08-25T08:27:07.584Z,5.57
2022-08-25T08:29:35.229Z,5.33
2022-08-25T08:32:04.799Z,5.20
2022-08-25T08:34:33.251Z,5.23
2022-08-25T08:37:01.347Z,5.40
2022-08-25T08:39:29.651Z,5.83
2022-08-25T08:42:17.186Z,5.30
2022-08-25T08:45:02.592Z,5.40
2022-08-25T08:47:43.477Z,5.70
2022-08-25T08:50:32.995Z,4.63
2022-08-25T08:53:07.444Z,5.27
2022-08-25T08:55:38.919Z,5.10
2022-08-25T08:58:09.714Z,5.50
2022-08-25T09:00:41.982Z,5.03
2022-08-25T09:03:31.754Z,5.10
2022-08-25T09:06:03.810Z,5.90
2022-08-25T09:08:33.821Z,4.57
2022-08-25T09:11:10.328Z,5.20
2022-08-25T09:13:58.247Z,5.03
2022-08-25T09:16:50.526Z,5.18
2022-08-25T09:19:32.921Z,5.10
2022-08-25T09:22:33.864Z,5.30
2022-08-25T09:25:02.547Z,5.70
2022-08-25T09:27:40.540Z,5.53
2022-08-25T09:30:10.881Z,4.80
2022-08-25T09:32:41.603Z,4.75
2022-08-25T09:35:20.768Z,4.93
2022-08-25T09:37:59.029Z,4.68
2022-08-25T09:40:28.064Z,4.68
2022-08-25T09:42:58.583Z,4.55
2022-08-25T09:45:39.663Z,4.50
2022-08-25T09:48:24.732Z,4.50
2022-08-25T09:50:59.081Z,4.53
2022-08-25T09:53:28.786Z,3.88
2022-08-25T09:56:06.777Z,3.88
2022-08-25T09:58:34.023Z,4.38
2022-08-25T10:01:13.934Z,3.72
2022-08-25T10:03:59.151Z,3.83
2022-08-25T10:06:31.064Z,4.00
2022-08-25T10:09:01.810Z,3.92
2022-08-25T10:11:40.064Z,3.92
2022-08-25T10:14:17.800Z,4.50
2022-08-25T10:16:47.260Z,4.00
2022-08-25T10:19:25.531Z,3.88
2022-08-25T10:22:08.556Z,4.00
2022-08-25T10:24:40.978Z,3.63
2022-08-25T10:27:22.907Z,3.80
2022-08-25T10:30:06.860Z,4.30
2022-08-25T10:32:55.557Z,3.70
2022-08-25T10:35:26.297Z,3.90
2022-08-25T10:38:04.054Z,4.47
2022-08-25T10:40:36.409Z,4.10
2022-08-25T10:43:10.431Z,3.58
2022-08-25T10:45:45.431Z,3.67
2022-08-25T10:48:29.629Z,4.00
2022-08-25T10:51:02.024Z,4.10
2022-08-25T10:53:41.186Z,3.38
2022-08-25T10:56:12.845Z,3.75
2022-08-25T10:59:12.451Z,3.70
2022-08-25T11:01:53.635Z,4.15
2022-08-25T11:04:26.202Z,3.95
2022-08-25T11:07:00.431Z,3.95
2022-08-25T11:09:36.394Z,3.80
2022-08-25T11:12:08.809Z,3.78
2022-08-25T11:14:40.052Z,3.40
2022-08-25T11:17:12.082Z,3.60
2022-08-25T11:19:43.091Z,3.38
2022-08-25T11:22:20.163Z,3.95
2022-08-25T11:25:05.519Z,3.60
2022-08-25T11:27:38.740Z,3.70
2022-08-25T11:30:09.962Z,3.83
2022-08-25T11:32:38.598Z,3.55
2022-08-25T11:35:08.571Z,3.50
2022-08-25T11:37:53.476Z,3.17
2022-08-25T11:40:35.100Z,2.90
2022-08-25T11:43:14.125Z,3.25
2022-08-25T11:45:54.813Z,3.30
2022-08-25T11:48:34.449Z,3.33
2022-08-25T11:51:05.136Z,3.45
2022-08-25T11:53:34.352Z,3.42
2022-08-25T11:56:06.612Z,3.70
2022-08-25T11:58:43.779Z,3.47
2022-08-25T12:01:27.532Z,3.58
2022-08-25T12:04:14.839Z,3.90
2022-08-25T12:07:19.516Z,3.00
2022-08-25T12:10:12.974Z,3.53
2022-08-25T12:13:13.856Z,3.30
2022-08-25T12:15:59.120Z,2.85
2022-08-25T12:18:50.277Z,3.28
2022-08-25T12:21:31.655Z,3.10
2022-08-25T12:24:10.088Z,2.65
2022-08-25T12:26:46.119Z,2.40
2022-08-25T12:29:21.892Z,2.63
2022-08-25T12:32:17.145Z,2.95
2022-08-25T12:35:09.019Z,2.80
2022-08-25T12:38:02.486Z,2.95
2022-08-25T12:40:33.755Z,2.63
2022-08-25T12:43:04.821Z,2.90
2022-08-25T12:45:38.489Z,2.70
2022-08-25T12:48:41.963Z,2.80
2022-08-25T12:51:16.075Z,2.83
2022-08-25T12:53:46.105Z,2.78
2022-08-25T12:56:21.082Z,2.90
2022-08-25T12:59:00.128Z,2.97
2022-08-25T13:01:38.172Z,2.80
2022-08-25T13:04:25.972Z,2.70
2022-08-25T13:07:13.877Z,2.53
2022-08-25T13:10:19.767Z,2.88
2022-08-25T13:12:55.023Z,2.53
2022-08-25T13:15:35.292Z,2.53
2022-08-25T13:18:20.563Z,2.70
2022-08-25T13:20:49.781Z,2.60
2022-08-25T13:23:21.955Z,2.53
2022-08-25T13:25:51.842Z,2.50
2022-08-25T13:28:27.268Z,2.80
2022-08-25T13:31:01.030Z,2.90
2022-08-25T13:33:29.599Z,2.72
2022-08-25T13:36:17.145Z,2.60
2022-08-25T13:38:46.906Z,3.10
2022-08-25T13:41:22.432Z,2.70
2022-08-25T13:43:56.977Z,2.80
2022-08-25T13:46:28.149Z,2.55
2022-08-25T13:49:05.599Z,2.20
2022-08-25T13:51:33.553Z,2.75
2022-08-25T13:54:03.545Z,2.50
2022-08-25T13:56:40.013Z,2.63
2022-08-25T13:59:21.868Z,2.83
2022-08-25T14:01:50.240Z,2.70
2022-08-25T14:04:31.388Z,2.50
2022-08-25T14:07:34.118Z,2.75
2022-08-25T14:10:04.199Z,2.70
2022-08-25T14:12:39.890Z,2.50
2022-08-25T14:15:26.047Z,2.72
2022-08-25T14:18:02.438Z,2.72
2022-08-25T14:20:33.378Z,2.40
2022-08-25T14:23:03.240Z,2.67
2022-08-25T14:25:32.591Z,2.50
2022-08-25T14:28:16.336Z,2.58
2022-08-25T14:30:46.813Z,2.50
2022-08-25T14:33:16.148Z,2.95
2022-08-25T14:35:50.240Z,2.70
2022-08-25T14:38:19.669Z,2.38
2022-08-25T14:40:48.220Z,2.60
2022-08-25T14:43:15.672Z,2.47
2022-08-25T14:45:48.219Z,2.50
2022-08-25T14:48:20.163Z,2.60
2022-08-25T14:50:48.427Z,2.70
2022-08-25T14:53:17.677Z,2.33
2022-08-25T14:55:44.635Z,2.50
2022-08-25T14:58:11.548Z,3.00
2022-08-25T15:00:42.910Z,2.55
2022-08-25T15:03:13.578Z,2.70
2022-08-25T15:05:40.645Z,2.60
2022-08-25T15:08:32.923Z,2.40
2022-08-25T15:11:00.371Z,2.40
2022-08-25T15:13:27.522Z,2.50
2022-08-25T15:15:55.516Z,2.55
2022-08-25T15:18:25.820Z,2.30
2022-08-25T15:20:53.035Z,2.40
2022-08-25T15:23:21.289Z,2.35
2022-08-25T15:25:52.936Z,2.47
2022-08-25T15:28:21.853Z,2.45
2022-08-25T15:30:49.309Z,2.50
2022-08-25T15:33:16.703Z,2.58
2022-08-25T15:35:44.023Z,2.63
2022-08-25T15:38:12.554Z,2.70
2022-08-25T15:40:40.915Z,2.83
2022-08-25T15:43:07.831Z,2.70
2022-08-25T15:45:36.078Z,2.50
2022-08-25T15:48:09.288Z,3.00
2022-08-25T15:50:36.872Z,2.70
2022-08-25T15:53:07.088Z,2.97
2022-08-25T15:55:38.868Z,2.85
2022-08-25T15:58:08.683Z,2.67
2022-08-25T16:00:36.187Z,2.92
2022-08-25T16:03:05.239Z,3.50
2022-08-25T16:05:35.833Z,2.72
2022-08-25T16:08:04.578Z,2.60
2022-08-25T16:10:33.836Z,3.25
2022-08-25T16:13:04.803Z,2.60
2022-08-25T16:15:34.055Z,2.70
2022-08-25T16:18:02.273Z,2.70
2022-08-25T16:20:33.876Z,3.00
2022-08-25T16:23:02.926Z,2.75
2022-08-25T16:25:31.185Z,2.80
2022-08-25T16:27:58.345Z,3.20
2022-08-25T16:30:25.337Z,2.70
2022-08-25T16:32:53.643Z,2.88
2022-08-25T16:35:21.039Z,2.97
2022-08-25T16:37:49.528Z,2.85
2022-08-25T16:40:18.871Z,3.17
2022-08-25T16:42:46.963Z,3.10
2022-08-25T16:45:13.858Z,2.95
2022-08-25T16:47:42.729Z,2.92
2022-08-25T16:50:11.811Z,3.05
2022-08-25T16:52:58.153Z,2.78
2022-08-25T16:55:27.323Z,2.63
2022-08-25T16:57:55.400Z,2.83
2022-08-25T17:00:25.427Z,2.92
2022-08-25T17:02:55.046Z,3.03
2022-08-25T17:05:23.315Z,3.05
2022-08-25T17:08:10.144Z,3.17
2022-08-25T17:10:40.190Z,2.97
2022-08-25T17:13:09.422Z,3.05
2022-08-25T17:15:40.437Z,2.78
2022-08-25T17:18:07.838Z,2.95
2022-08-25T17:20:39.607Z,3.00
2022-08-25T17:23:12.079Z,3.05
2022-08-25T17:25:41.301Z,2.75
2022-08-25T17:28:11.837Z,2.80
2022-08-25T17:30:39.766Z,2.87
2022-08-25T17:33:06.972Z,2.83
2022-08-25T17:35:40.088Z,3.00
2022-08-25T17:38:07.716Z,3.00
2022-08-25T17:40:35.936Z,3.30
2022-08-25T17:43:02.970Z,3.10
2022-08-25T17:45:30.006Z,3.37
2022-08-25T17:47:58.989Z,3.07
2022-08-25T17:50:26.613Z,2.80
2022-08-25T17:52:54.856Z,3.00
2022-08-25T17:55:23.015Z,3.00
2022-08-25T17:57:50.555Z,3.10
2022-08-25T18:00:18.777Z,2.87
2022-08-25T18:02:47.203Z,3.10
2022-08-25T18:05:16.407Z,2.90
2022-08-25T18:07:44.073Z,2.90
2022-08-25T18:10:13.031Z,2.80
2022-08-25T18:12:40.159Z,2.83
2022-08-25T18:15:08.605Z,2.97
2022-08-25T18:17:36.192Z,3.20
2022-08-25T18:20:09.426Z,2.90
2022-08-25T18:22:37.142Z,3.00
2022-08-25T18:25:06.816Z,3.03
2022-08-25T18:27:35.607Z,3.07
2022-08-25T18:30:04.371Z,3.10
2022-08-25T18:32:31.573Z,3.27
2022-08-25T18:34:58.780Z,2.57
2022-08-25T18:37:44.197Z,3.00
2022-08-25T18:40:25.455Z,3.13
2022-08-25T18:42:57.623Z,3.00
2022-08-25T18:45:28.434Z,2.77
2022-08-25T18:47:57.493Z,2.80
2022-08-25T18:50:25.886Z,3.13
2022-08-25T18:52:55.073Z,2.60
2022-08-25T18:55:23.463Z,3.00
2022-08-25T18:57:51.351Z,2.90
2022-08-25T19:00:23.216Z,3.53
2022-08-25T19:02:52.797Z,3.50
2022-08-25T19:05:24.671Z,3.07
2022-08-25T19:07:52.062Z,3.27
2022-08-25T19:10:20.328Z,3.30
2022-08-25T19:12:51.004Z,3.30
2022-08-25T19:15:24.783Z,3.00
2022-08-25T19:17:53.124Z,3.60
2022-08-25T19:20:22.507Z,3.00
2022-08-25T19:22:50.818Z,4.17
2022-08-25T19:25:18.920Z,4.30
2022-08-25T19:27:47.180Z,4.17
2022-08-25T19:30:17.193Z,4.03
2022-08-25T19:32:47.623Z,3.57
2022-08-25T19:35:19.908Z,4.17
2022-08-25T19:37:47.041Z,3.70
2022-08-25T19:40:14.657Z,4.33
2022-08-25T19:42:45.205Z,3.77
2022-08-25T19:45:12.561Z,4.10
2022-08-25T19:47:41.333Z,3.80
2022-08-25T19:50:11.101Z,3.73
2022-08-25T19:52:44.203Z,3.63
2022-08-25T19:55:11.177Z,3.80
2022-08-25T19:57:42.784Z,3.73
2022-08-25T20:00:13.964Z,3.70
2022-08-25T20:02:41.856Z,3.90
2022-08-25T20:05:11.149Z,3.87
2022-08-25T20:07:38.573Z,3.40
2022-08-25T20:10:07.976Z,3.60
2022-08-25T20:12:35.768Z,3.80
2022-08-25T20:15:05.358Z,4.10
2022-08-25T20:17:33.432Z,3.90
2022-08-25T20:20:04.827Z,3.83
2022-08-25T20:22:34.022Z,4.07
2022-08-25T20:25:13.413Z,4.10
2022-08-25T20:27:43.081Z,4.07
2022-08-25T20:30:13.128Z,3.67
2022-08-25T20:32:40.352Z,3.87
2022-08-25T20:35:10.212Z,3.73
2022-08-25T20:37:43.846Z,3.60
2022-08-25T20:40:12.479Z,3.40
2022-08-25T20:42:40.636Z,4.10
2022-08-25T20:45:11.559Z,3.97
2022-08-25T20:47:39.008Z,3.53
2022-08-25T20:50:07.757Z,3.50
2022-08-25T20:52:34.917Z,3.83
2022-08-25T20:55:04.055Z,3.60
2022-08-25T20:57:31.719Z,3.57
2022-08-25T21:00:00.274Z,3.47
2022-08-25T21:02:28.269Z,3.67
2022-08-25T21:04:57.058Z,3.90
2022-08-25T21:07:24.642Z,3.80
2022-08-25T21:09:52.135Z,3.80
2022-08-25T21:12:20.985Z,3.60
2022-08-25T21:14:48.499Z,3.27
2022-08-25T21:17:16.293Z,3.90
2022-08-25T21:19:46.243Z,3.70
2022-08-25T21:22:13.194Z,3.70
2022-08-25T21:24:40.616Z,3.70
2022-08-25T21:27:08.358Z,3.60
2022-08-25T21:29:36.999Z,3.30
2022-08-25T21:32:04.019Z,3.63
2022-08-25T21:34:31.233Z,3.70
2022-08-25T21:36:59.396Z,3.80
2022-08-25T21:39:29.515Z,3.90
2022-08-25T21:41:59.893Z,3.70
2022-08-25T21:44:27.227Z,3.70
2022-08-25T21:46:56.170Z,4.07
2022-08-25T21:49:24.121Z,3.63
2022-08-25T21:52:00.067Z,4.13
2022-08-25T21:54:28.660Z,4.00
2022-08-25T21:56:59.615Z,3.80
2022-08-25T21:59:29.305Z,4.00
2022-08-25T22:01:59.685Z,3.93
2022-08-25T22:04:28.141Z,3.73
2022-08-25T22:06:55.723Z,4.00
2022-08-25T22:09:25.101Z,3.70
2022-08-25T22:11:53.213Z,3.97
2022-08-25T22:14:23.395Z,4.10
2022-08-25T22:16:51.944Z,4.00
2022-08-25T22:19:20.628Z,3.87
2022-08-25T22:21:47.574Z,3.57
2022-08-25T22:24:15.277Z,4.13
2022-08-25T22:26:43.172Z,3.70
2022-08-25T22:29:14.530Z,3.90
2022-08-25T22:31:52.957Z,3.87
2022-08-25T22:34:30.309Z,3.63
2022-08-25T22:36:59.793Z,3.43
2022-08-25T22:39:30.013Z,3.53
2022-08-25T22:41:57.163Z,4.03
2022-08-25T22:44:25.684Z,4.03
2022-08-25T22:46:53.163Z,3.83
2022-08-25T22:49:21.833Z,3.87
2022-08-25T22:51:48.889Z,3.97
2022-08-25T22:54:16.117Z,3.47
2022-08-25T22:56:43.622Z,4.10
2022-08-25T22:59:13.026Z,3.60
2022-08-25T23:01:42.524Z,4.20
2022-08-25T23:04:10.728Z,4.23
2022-08-25T23:06:39.194Z,4.30
2022-08-25T23:09:07.568Z,4.40
2022-08-25T23:11:35.842Z,4.13
2022-08-25T23:14:08.152Z,3.83
2022-08-25T23:16:35.233Z,3.90
2022-08-25T23:19:02.248Z,4.07
2022-08-25T23:21:48.147Z,4.30
2022-08-25T23:24:26.937Z,4.10
2022-08-25T23:26:57.015Z,4.17
2022-08-25T23:29:23.910Z,4.27
2022-08-25T23:31:53.714Z,4.27
2022-08-25T23:34:21.538Z,4.30
2022-08-25T23:36:49.140Z,4.20
2022-08-25T23:39:17.610Z,4.30
2022-08-25T23:41:44.591Z,4.27
2022-08-25T23:44:17.356Z,4.07
2022-08-25T23:46:44.857Z,3.70
2022-08-25T23:49:12.502Z,3.83
2022-08-25T23:51:41.155Z,4.20
2022-08-25T23:54:11.637Z,3.93
2022-08-25T23:56:42.438Z,3.93
2022-08-25T23:59:18.216Z,4.40
